Ridgecrest, CA (93555)

1:40 AM PDT on July 25, 2016 (GMT -0700)
Ridgecrest Heights, CA 93555 | | Change Station

Elev 2392 ft 35.60 °N, 117.70 °W | Updated 5 seconds ago

Clear
Clear
87.1 °F
Feels Like 84 °F
N
12.8
Wind Variable Wind from SSW
Gusts 15.0 mph

Today
High -- | Low -- °F
--% Chance of Precip.
Yesterday
High -- | Low -- °F
Precip. -- in
Pressure 29.78 in
Visibility 10.0 miles
Clouds Clear
Heat Index 84 °F
Dew Point 30 °F
Humidity 13%
Rainfall 0.00 in
Snow Depth Not available.
5:54 AM 8:00 PM
Waning Gibbous, 68% visible
METAR KNID 250756Z AUTO 18009KT 10SM CLR 30/M06 A2986 RMK AO2 SLP082 T03001056 404330206 $
Pressure 29.78 in
Visibility 10.0 miles
Clouds Clear
Heat Index 84 °F
Dew Point 30 °F
Humidity 13%
Rainfall 0.00 in
Snow Depth Not available.
5:54 AM 8:00 PM
Waning Gibbous, 68% visible
METAR KNID 250756Z AUTO 18009KT 10SM CLR 30/M06 A2986 RMK AO2 SLP082 T03001056 404330206 $

10-Day Weather Forecast

Almanac

Astronomy

Jul. 25, 2016 Rise Set
Actual Time
Civil Twilight
Nautical Twilight
Astronomical Twilight
Moon
Length of Visible Light
Length of Day
Tomorrow will be .
, % of the Moon is Illuminated

Today's Extremes

State Highs State Lows

Community

WunderPhotos

Upload Photos

1,927,274 photos uploaded!

WunderBlog® & News

Nearby

Air Quality

  Air Quality AQ Index Pollutant
Not available.

Snow Depth

Station Depth Elevation

Earthquake Activity

City Distance Mag. Time & Date
Minimum magnitude displayed is 2.5.

Coastal Water Temperatures

Place Temperature

Stations

Nearby Weather Stations

Station Location Temp. Windchill Dew Point Humidity Wind Precip. Elev Updated Type
                   

Watches & Warnings

There are currently no watches in effect.